createdAt,value
2018-12-15T00:00:23.866Z,25.70
2018-12-15T00:02:52.170Z,25.27
2018-12-15T00:05:20.217Z,25.65
2018-12-15T00:07:48.295Z,25.30
2018-12-15T00:10:16.331Z,26.03
2018-12-15T00:12:44.650Z,26.00
2018-12-15T00:15:12.746Z,26.30
2018-12-15T00:17:40.895Z,25.60
2018-12-15T00:20:09.153Z,25.80
2018-12-15T00:22:37.348Z,24.85
2018-12-15T00:25:05.704Z,24.63
2018-12-15T00:27:33.894Z,25.02
2018-12-15T00:30:02.071Z,24.02
2018-12-15T00:32:30.355Z,25.62
2018-12-15T00:34:58.595Z,25.32
2018-12-15T00:37:26.973Z,24.52
2018-12-15T00:39:55.144Z,26.40
2018-12-15T00:42:31.530Z,25.55
2018-12-15T00:44:59.882Z,25.50
2018-12-15T00:47:28.188Z,24.90
2018-12-15T00:49:56.541Z,25.90
2018-12-15T00:52:24.835Z,25.62
2018-12-15T00:54:53.045Z,26.20
2018-12-15T00:57:21.059Z,27.32
2018-12-15T00:59:49.264Z,27.02
2018-12-15T01:02:18.160Z,28.98
2018-12-15T01:04:46.211Z,30.20
2018-12-15T01:07:14.363Z,29.45
2018-12-15T01:09:42.686Z,25.65
2018-12-15T01:12:10.706Z,25.63
2018-12-15T01:14:38.819Z,25.72
2018-12-15T01:17:07.055Z,27.20
2018-12-15T01:19:35.465Z,25.10
2018-12-15T01:22:03.615Z,27.07
2018-12-15T01:24:31.817Z,26.97
2018-12-15T01:26:59.992Z,25.33
2018-12-15T01:29:28.051Z,25.87
2018-12-15T01:31:56.192Z,25.62
2018-12-15T01:34:24.611Z,25.70
2018-12-15T01:36:52.761Z,25.70
2018-12-15T01:39:21.171Z,26.17
2018-12-15T01:41:49.366Z,26.37
2018-12-15T01:44:17.506Z,26.12
2018-12-15T01:46:45.781Z,26.25
2018-12-15T01:49:13.827Z,24.35
2018-12-15T01:51:42.027Z,26.10
2018-12-15T01:54:10.199Z,26.85
2018-12-15T01:56:38.263Z,26.15
2018-12-15T01:59:06.408Z,27.20
2018-12-15T02:01:34.710Z,26.20
2018-12-15T02:04:02.860Z,26.97
2018-12-15T02:06:31.668Z,26.23
2018-12-15T02:08:59.951Z,26.93
2018-12-15T02:11:28.022Z,27.07
2018-12-15T02:13:56.164Z,26.33
2018-12-15T02:16:24.252Z,24.00
2018-12-15T02:18:52.400Z,23.87
2018-12-15T02:21:20.711Z,22.60
2018-12-15T02:23:49.604Z,23.80
2018-12-15T02:26:17.676Z,24.87
2018-12-15T02:28:45.937Z,24.20
2018-12-15T02:31:14.157Z,25.45
2018-12-15T02:33:42.921Z,26.35
2018-12-15T02:36:11.078Z,27.17
2018-12-15T02:38:39.236Z,26.00
2018-12-15T02:41:07.427Z,26.63
2018-12-15T02:43:35.671Z,25.02
2018-12-15T02:46:04.186Z,27.25
2018-12-15T02:48:32.361Z,26.77
2018-12-15T02:51:00.610Z,25.65
2018-12-15T02:53:28.716Z,27.87
2018-12-15T02:55:56.867Z,27.67
2018-12-15T02:58:24.965Z,26.73
2018-12-15T03:00:53.015Z,26.73
2018-12-15T03:03:21.097Z,27.75
2018-12-15T03:05:49.351Z,27.50
2018-12-15T03:08:17.558Z,28.65
2018-12-15T03:10:45.810Z,29.80
2018-12-15T03:13:13.983Z,29.07
2018-12-15T03:15:42.067Z,28.95
2018-12-15T03:18:10.430Z,29.30
2018-12-15T03:20:38.479Z,30.75
2018-12-15T03:23:06.577Z,30.55
2018-12-15T03:25:34.748Z,31.37
2018-12-15T03:28:02.815Z,30.70
2018-12-15T03:30:30.980Z,29.75
2018-12-15T03:32:59.085Z,31.15
2018-12-15T03:35:28.287Z,30.30
2018-12-15T03:37:56.440Z,29.18
2018-12-15T03:40:24.717Z,27.20
2018-12-15T03:42:53.379Z,28.52
2018-12-15T03:45:22.271Z,29.00
2018-12-15T03:47:56.286Z,30.25
2018-12-15T03:50:20.470Z,29.85
2018-12-15T03:52:48.763Z,28.47
2018-12-15T03:55:16.817Z,29.65
2018-12-15T03:57:45.101Z,29.90
2018-12-15T04:00:13.500Z,30.62
2018-12-15T04:02:41.743Z,29.37
2018-12-15T04:05:10.063Z,30.37
2018-12-15T04:07:38.413Z,28.70
2018-12-15T04:10:07.024Z,29.23
2018-12-15T04:12:35.580Z,29.10
2018-12-15T04:15:04.582Z,29.65
2018-12-15T04:17:32.830Z,29.05
2018-12-15T04:20:00.948Z,29.18
2018-12-15T04:22:29.067Z,30.25
2018-12-15T04:24:57.382Z,28.95
2018-12-15T04:27:25.416Z,30.05
2018-12-15T04:29:53.610Z,30.15
2018-12-15T04:32:23.555Z,29.95
2018-12-15T04:34:51.905Z,28.75
2018-12-15T04:37:20.197Z,28.95
2018-12-15T04:39:48.233Z,29.45
2018-12-15T04:42:16.426Z,28.92
2018-12-15T04:44:44.492Z,29.25
2018-12-15T04:47:13.431Z,28.20
2018-12-15T04:49:42.409Z,28.47
2018-12-15T04:52:11.304Z,27.82
2018-12-15T04:54:40.191Z,29.27
2018-12-15T04:57:09.071Z,29.05
2018-12-15T04:59:37.503Z,29.57
2018-12-15T05:02:05.837Z,28.90
2018-12-15T05:04:33.874Z,28.67
2018-12-15T05:07:01.961Z,29.63
2018-12-15T05:09:30.849Z,28.52
2018-12-15T05:11:59.631Z,29.98
2018-12-15T05:14:28.355Z,28.87
2018-12-15T05:16:56.771Z,31.50
2018-12-15T05:19:25.052Z,29.32
2018-12-15T05:21:53.203Z,30.23
2018-12-15T05:24:21.447Z,30.25
2018-12-15T05:26:50.053Z,29.98
2018-12-15T05:29:18.175Z,31.37
2018-12-15T05:31:46.315Z,29.87
2018-12-15T05:34:14.640Z,30.70
2018-12-15T05:36:42.751Z,30.72
2018-12-15T05:39:11.534Z,31.48
2018-12-15T05:41:39.856Z,30.20
2018-12-15T05:44:08.256Z,31.48
2018-12-15T05:46:36.394Z,30.65
2018-12-15T05:49:04.669Z,32.40
2018-12-15T05:51:32.822Z,30.50
2018-12-15T05:54:01.248Z,32.03
2018-12-15T05:56:29.994Z,30.77
2018-12-15T05:58:58.185Z,30.77
2018-12-15T06:01:26.226Z,31.45
2018-12-15T06:03:54.427Z,29.35
2018-12-15T06:06:22.596Z,31.60
2018-12-15T06:08:50.978Z,30.45
2018-12-15T06:11:19.138Z,31.52
2018-12-15T06:13:47.922Z,29.98
2018-12-15T06:16:16.195Z,32.05
2018-12-15T06:18:44.287Z,31.52
2018-12-15T06:21:12.446Z,31.93
2018-12-15T06:23:40.815Z,30.35
2018-12-15T06:26:09.106Z,30.65
2018-12-15T06:28:37.183Z,29.53
2018-12-15T06:31:06.210Z,29.30
2018-12-15T06:33:34.323Z,28.27
2018-12-15T06:36:02.414Z,28.23
2018-12-15T06:38:30.658Z,27.48
2018-12-15T06:40:58.879Z,26.95
2018-12-15T06:43:27.374Z,28.40
2018-12-15T06:45:55.999Z,28.20
2018-12-15T06:48:24.079Z,27.40
2018-12-15T06:50:52.189Z,30.12
2018-12-15T06:53:20.227Z,28.75
2018-12-15T06:55:48.319Z,28.05
2018-12-15T06:58:16.480Z,20.17
2018-12-15T07:00:44.866Z,17.65
2018-12-15T07:03:13.235Z,17.60
2018-12-15T07:05:41.743Z,18.37
2018-12-15T07:08:09.886Z,16.25
2018-12-15T07:10:38.082Z,16.77
2018-12-15T07:13:06.142Z,18.60
2018-12-15T07:15:34.409Z,19.85
2018-12-15T07:18:02.805Z,20.50
2018-12-15T07:20:30.866Z,21.55
2018-12-15T07:22:59.038Z,22.00
2018-12-15T07:25:27.602Z,23.65
2018-12-15T07:27:56.646Z,24.40
2018-12-15T07:30:25.224Z,22.75
2018-12-15T07:32:53.304Z,22.22
2018-12-15T07:35:21.318Z,21.80
2018-12-15T07:37:49.994Z,20.92
2018-12-15T07:40:18.204Z,22.67
2018-12-15T07:42:46.386Z,20.95
2018-12-15T07:45:14.535Z,22.80
2018-12-15T07:47:42.827Z,21.82
2018-12-15T07:50:11.090Z,20.20
2018-12-15T07:52:39.192Z,18.42
2018-12-15T07:55:07.428Z,17.95
2018-12-15T07:57:35.528Z,19.10
2018-12-15T08:00:05.044Z,18.65
2018-12-15T08:02:33.186Z,20.43
2018-12-15T08:05:02.355Z,19.30
2018-12-15T08:07:30.589Z,19.02
2018-12-15T08:10:03.111Z,20.27
2018-12-15T08:12:42.601Z,18.75
2018-12-15T08:15:11.398Z,19.10
2018-12-15T08:17:39.417Z,18.67
2018-12-15T08:20:09.530Z,17.27
2018-12-15T08:22:37.806Z,16.62
2018-12-15T08:25:06.908Z,16.87
2018-12-15T08:27:35.319Z,16.97
2018-12-15T08:30:05.154Z,16.77
2018-12-15T08:32:33.275Z,15.58
2018-12-15T08:35:01.442Z,15.90
2018-12-15T08:37:29.507Z,15.37
2018-12-15T08:39:57.567Z,15.23
2018-12-15T08:42:25.740Z,14.38
2018-12-15T08:44:53.930Z,13.18
2018-12-15T08:47:22.002Z,13.30
2018-12-15T08:49:50.768Z,14.43
2018-12-15T08:52:18.869Z,13.38
2018-12-15T08:54:47.022Z,12.40
2018-12-15T08:57:20.854Z,11.63
2018-12-15T08:59:49.027Z,12.30
2018-12-15T09:02:17.413Z,13.77
2018-12-15T09:04:45.629Z,14.30
2018-12-15T09:07:14.359Z,13.68
2018-12-15T09:09:42.529Z,12.80
2018-12-15T09:12:10.836Z,13.78
2018-12-15T09:14:38.861Z,13.80
2018-12-15T09:17:07.138Z,15.43
2018-12-15T09:19:35.295Z,15.57
2018-12-15T09:22:11.367Z,14.50
2018-12-15T09:24:34.216Z,14.45
2018-12-15T09:27:02.319Z,14.18
2018-12-15T09:29:30.362Z,14.65
2018-12-15T09:31:58.774Z,14.43
2018-12-15T09:34:27.140Z,14.00
2018-12-15T09:36:55.542Z,14.75
2018-12-15T09:39:23.573Z,14.15
2018-12-15T09:41:51.838Z,15.48
2018-12-15T09:44:20.126Z,15.97
2018-12-15T09:46:48.588Z,15.95
2018-12-15T09:49:17.885Z,16.82
2018-12-15T09:51:46.464Z,14.98
2018-12-15T09:54:15.111Z,15.87
2018-12-15T09:56:44.360Z,17.00
2018-12-15T09:59:12.868Z,13.45
2018-12-15T10:01:41.197Z,13.78
2018-12-15T10:04:10.174Z,16.33
2018-12-15T10:06:38.671Z,13.55
2018-12-15T10:09:07.299Z,14.05
2018-12-15T10:11:35.461Z,12.63
2018-12-15T10:14:03.846Z,14.25
2018-12-15T10:16:32.677Z,14.78
2018-12-15T10:19:00.939Z,13.55
2018-12-15T10:21:29.069Z,15.90
2018-12-15T10:23:57.283Z,15.72
2018-12-15T10:26:25.636Z,17.75
2018-12-15T10:28:54.078Z,16.45
2018-12-15T10:31:27.830Z,17.30
2018-12-15T10:33:55.970Z,17.82
2018-12-15T10:36:24.658Z,18.02
2018-12-15T10:38:52.925Z,17.42
2018-12-15T10:41:22.402Z,17.60
2018-12-15T10:43:50.381Z,17.77
2018-12-15T10:46:18.683Z,17.60
2018-12-15T10:48:46.957Z,17.80
2018-12-15T10:51:15.235Z,17.20
2018-12-15T10:53:43.506Z,18.70
2018-12-15T10:56:11.581Z,18.57
2018-12-15T10:58:39.831Z,19.62
2018-12-15T11:01:13.536Z,18.48
2018-12-15T11:03:41.619Z,19.57
2018-12-15T11:06:09.718Z,19.35
2018-12-15T11:08:37.976Z,19.90
2018-12-15T11:11:06.253Z,19.80
2018-12-15T11:13:34.619Z,20.40
2018-12-15T11:16:02.707Z,20.48
2018-12-15T11:18:30.855Z,21.60
2018-12-15T11:20:59.666Z,22.13
2018-12-15T11:23:27.838Z,20.95
2018-12-15T11:25:55.898Z,21.37
2018-12-15T11:28:24.003Z,22.98
2018-12-15T11:30:52.037Z,21.62
2018-12-15T11:33:20.235Z,22.07
2018-12-15T11:35:48.386Z,22.07
2018-12-15T11:38:16.585Z,21.55
2018-12-15T11:40:44.612Z,21.10
2018-12-15T11:43:13.496Z,21.00
2018-12-15T11:45:41.590Z,23.83
2018-12-15T11:48:10.380Z,22.10
2018-12-15T11:50:38.522Z,23.92
2018-12-15T11:53:06.537Z,21.77
2018-12-15T11:55:34.687Z,22.52
2018-12-15T11:58:02.996Z,22.17
2018-12-15T12:00:31.139Z,21.90
2018-12-15T12:02:59.218Z,22.37
2018-12-15T12:05:27.504Z,20.57
2018-12-15T12:07:55.688Z,19.67
2018-12-15T12:10:23.836Z,20.72
2018-12-15T12:12:52.603Z,21.07
2018-12-15T21:18:56.439Z,31.17
2018-12-15T21:21:24.528Z,29.65
2018-12-15T21:23:52.549Z,27.10
2018-12-15T21:26:20.840Z,28.75
2018-12-15T21:28:48.920Z,28.32
2018-12-15T21:31:17.616Z,27.07
2018-12-15T21:33:45.669Z,27.60
2018-12-15T21:36:13.765Z,27.30
2018-12-15T21:38:41.822Z,28.80
2018-12-15T21:41:10.018Z,27.73
2018-12-15T21:43:38.270Z,27.07
2018-12-15T21:46:07.080Z,25.85
2018-12-15T21:48:35.224Z,26.15
2018-12-15T21:51:03.311Z,26.87
2018-12-15T21:53:32.106Z,26.65
2018-12-15T21:56:01.071Z,27.50
2018-12-15T21:58:29.582Z,26.80
2018-12-15T22:00:58.624Z,27.80
2018-12-15T22:03:26.951Z,29.15
2018-12-15T22:05:55.061Z,29.40
2018-12-15T22:08:23.720Z,28.62
2018-12-15T22:10:51.892Z,29.12
2018-12-15T22:13:21.760Z,29.07
2018-12-15T22:15:50.126Z,30.68
2018-12-15T22:18:18.247Z,28.85
2018-12-15T22:20:46.632Z,29.95
2018-12-15T22:23:15.234Z,29.30
2018-12-15T22:25:43.333Z,28.75
2018-12-15T22:28:11.595Z,28.95
2018-12-15T22:30:39.807Z,29.33
2018-12-15T22:33:07.874Z,29.25
2018-12-15T22:35:35.915Z,29.35
2018-12-15T22:38:04.000Z,29.90
2018-12-15T22:40:32.088Z,32.20
2018-12-15T22:43:00.363Z,32.38
2018-12-15T22:45:29.109Z,31.37
2018-12-15T22:47:57.321Z,32.45
2018-12-15T22:50:25.626Z,31.73
2018-12-15T22:52:54.287Z,30.30
2018-12-15T22:55:22.571Z,32.35
2018-12-15T22:57:50.720Z,33.20
2018-12-15T23:00:19.314Z,34.23
2018-12-15T23:02:47.378Z,33.67
2018-12-15T23:05:15.576Z,34.03
2018-12-15T23:07:43.622Z,34.15
2018-12-15T23:10:12.415Z,32.75
2018-12-15T23:12:40.587Z,33.63
2018-12-15T23:15:08.995Z,32.95
2018-12-15T23:17:37.226Z,34.50
2018-12-15T23:20:06.978Z,34.60
2018-12-15T23:22:35.165Z,34.55
2018-12-15T23:25:03.446Z,33.15
2018-12-15T23:27:31.598Z,34.70
2018-12-15T23:29:59.988Z,34.63
2018-12-15T23:32:28.087Z,33.20
2018-12-15T23:34:56.070Z,34.65
2018-12-15T23:37:24.392Z,33.45
2018-12-15T23:39:52.570Z,33.80
2018-12-15T23:42:20.673Z,33.40
2018-12-15T23:44:48.887Z,31.80
2018-12-15T23:47:17.099Z,31.35
2018-12-15T23:49:45.115Z,32.05
2018-12-15T23:52:14.046Z,31.37
2018-12-15T23:54:42.095Z,30.97
2018-12-15T23:57:10.179Z,30.80
2018-12-15T23:59:38.431Z,31.95
